Terminal Aerodrome Forecast
Issued by NWS Grand Forks, ND

Home | Current Version | Previous Version | Text Only | Print | Product List | Glossary Off
Versions: 1 2 3 4 5 6 7 8 9 10 11 12 13 14 15

906
FTUS43 KFGF 170521
TAFGFK
TAF
KGFK 170521Z 1706/1806 17018G25KT P6SM BKN110
     FM170900 17013KT P6SM BKN090
      TEMPO 1710/1711 -FZRASN BKN050
     FM171300 25008KT P6SM BKN120
     FM171400 29007KT P6SM BKN130
     FM171700 32009KT P6SM BKN200=

USA.gov is the U.S. government's official web portal to all federal, state and local government web resources and services.